createdAt,value
2022-12-17T00:02:10.862Z,101062.50
2022-12-17T00:04:52.797Z,101072.25
2022-12-17T00:07:35.667Z,101075.00
2022-12-17T00:10:29.527Z,101076.63
2022-12-17T00:13:11.630Z,101080.97
2022-12-17T00:15:53.649Z,101084.94
2022-12-17T00:18:47.001Z,101079.41
2022-12-17T00:21:28.931Z,101081.81
2022-12-17T00:24:10.859Z,101090.47
2022-12-17T00:26:52.784Z,101089.75
2022-12-17T00:29:34.788Z,101090.47
2022-12-17T00:32:16.886Z,101095.66
2022-12-17T00:35:01.352Z,101093.47
2022-12-17T00:37:43.369Z,101110.94
2022-12-17T00:40:25.858Z,101106.78
2022-12-17T00:43:14.904Z,101102.44
2022-12-17T00:45:56.818Z,101105.94
2022-12-17T00:48:39.267Z,101113.91
2022-12-17T00:51:23.918Z,101123.91
2022-12-17T00:54:06.090Z,101128.16
2022-12-17T00:56:48.054Z,101134.69
2022-12-17T00:59:30.009Z,101132.22
2022-12-17T01:02:12.097Z,101125.09
2022-12-17T01:04:54.147Z,101127.88
2022-12-17T01:07:38.686Z,101128.50
2022-12-17T01:10:21.560Z,101131.63
2022-12-17T01:13:03.562Z,101128.88
2022-12-17T01:15:45.503Z,101139.84
2022-12-17T01:18:32.878Z,101138.22
2022-12-17T01:21:14.840Z,101149.38
2022-12-17T01:23:59.345Z,101151.72
2022-12-17T01:26:41.297Z,101153.72
2022-12-17T01:29:23.498Z,101153.91
2022-12-17T01:32:05.510Z,101159.66
2022-12-17T01:34:47.476Z,101159.28
2022-12-17T01:37:29.399Z,101143.09
2022-12-17T01:40:13.919Z,101149.50
2022-12-17T01:42:57.150Z,101154.56
2022-12-17T01:45:39.217Z,101163.44
2022-12-17T01:48:23.287Z,101158.34
2022-12-17T01:51:06.151Z,101157.94
2022-12-17T01:53:49.923Z,101161.00
2022-12-17T01:56:34.312Z,101162.03
2022-12-17T01:59:16.259Z,101156.03
2022-12-17T02:01:58.346Z,101160.09
2022-12-17T02:04:40.381Z,101157.50
2022-12-17T02:07:32.526Z,101166.38
2022-12-17T02:10:17.938Z,101162.22
2022-12-17T02:13:03.520Z,101171.44
2022-12-17T02:15:47.665Z,101167.09
2022-12-17T02:18:32.540Z,101178.31
2022-12-17T02:21:14.446Z,101171.00
2022-12-17T02:24:00.597Z,101177.44
2022-12-17T02:26:51.230Z,101176.72
2022-12-17T02:29:33.232Z,101178.28
2022-12-17T02:32:15.151Z,101174.25
2022-12-17T02:35:00.710Z,101181.91
2022-12-17T02:37:42.656Z,101181.38
2022-12-17T02:40:25.944Z,101187.97
2022-12-17T02:43:10.456Z,101175.97
2022-12-17T02:45:52.493Z,101179.91
2022-12-17T02:48:46.219Z,101188.88
2022-12-17T02:51:28.175Z,101190.94
2022-12-17T02:54:10.094Z,101200.94
2022-12-17T02:56:52.396Z,101199.91
2022-12-17T02:59:36.988Z,101212.13
2022-12-17T03:02:19.405Z,101214.41
2022-12-17T03:05:21.184Z,101216.94
2022-12-17T03:08:03.372Z,101212.84
2022-12-17T03:10:45.438Z,101215.69
2022-12-17T03:13:37.316Z,101222.00
2022-12-17T03:16:26.349Z,101226.63
2022-12-17T03:19:08.320Z,101226.75
2022-12-17T03:21:50.294Z,101224.97
2022-12-17T03:24:32.214Z,101229.47
2022-12-17T03:27:14.138Z,101235.91
2022-12-17T03:29:56.103Z,101231.53
2022-12-17T03:32:40.628Z,101248.84
2022-12-17T03:35:22.904Z,101250.13
2022-12-17T03:38:13.404Z,101250.00
2022-12-17T03:40:55.344Z,101251.53
2022-12-17T03:43:37.629Z,101243.53
2022-12-17T03:46:19.973Z,101242.28
2022-12-17T03:49:04.510Z,101246.91
2022-12-17T03:51:46.431Z,101247.56
2022-12-17T03:54:28.358Z,101247.91
2022-12-17T03:57:15.791Z,101245.28
2022-12-17T03:59:58.117Z,101248.66
2022-12-17T04:02:40.140Z,101255.31
2022-12-17T04:05:24.857Z,101250.63
2022-12-17T04:08:06.783Z,101255.06
2022-12-17T04:10:48.495Z,101258.06
2022-12-17T04:13:30.427Z,101253.22
2022-12-17T04:16:12.407Z,101257.84
2022-12-17T04:18:54.401Z,101261.16
2022-12-17T04:21:38.929Z,101266.88
2022-12-17T04:24:21.415Z,101269.53
2022-12-17T04:27:03.352Z,101268.84
2022-12-17T04:29:45.267Z,101285.97
2022-12-17T04:32:30.067Z,101279.53
2022-12-17T04:35:15.620Z,101285.00
2022-12-17T04:38:00.102Z,101285.22
2022-12-17T04:40:42.040Z,101284.59
2022-12-17T04:43:25.508Z,101285.00
2022-12-17T04:46:07.548Z,101303.41
2022-12-17T04:48:49.524Z,101305.25
2022-12-17T04:51:31.446Z,101307.81
2022-12-17T04:54:16.164Z,101307.88
2022-12-17T04:56:58.074Z,101301.00
2022-12-17T04:59:39.991Z,101303.66
2022-12-17T05:02:22.021Z,101302.03
2022-12-17T05:05:03.958Z,101311.19
2022-12-17T05:07:45.988Z,101314.81
2022-12-17T05:10:30.593Z,101312.72
2022-12-17T05:13:13.017Z,101322.69
2022-12-17T05:15:55.129Z,101327.38
2022-12-17T05:18:37.083Z,101327.34
2022-12-17T05:21:19.037Z,101324.41
2022-12-17T05:24:00.939Z,101328.84
2022-12-17T05:26:45.475Z,101326.56
2022-12-17T05:29:27.584Z,101326.91
2022-12-17T05:32:09.506Z,101333.03
2022-12-17T05:34:51.435Z,101339.31
2022-12-17T05:37:34.196Z,101341.97
2022-12-17T05:40:16.125Z,101351.75
2022-12-17T05:43:09.025Z,101349.91
2022-12-17T05:45:50.955Z,101357.97
2022-12-17T05:48:32.884Z,101362.31
2022-12-17T05:51:14.817Z,101359.34
2022-12-17T05:53:56.718Z,101353.72
2022-12-17T05:56:38.684Z,101348.59
2022-12-17T05:59:23.196Z,101354.63
2022-12-17T06:02:05.134Z,101364.28
2022-12-17T06:04:47.067Z,101365.06
2022-12-17T06:07:29.020Z,101369.25
2022-12-17T06:10:10.924Z,101370.97
2022-12-17T06:13:01.644Z,101371.13
2022-12-17T06:15:46.163Z,101378.56
2022-12-17T06:18:28.134Z,101380.50
2022-12-17T06:21:10.049Z,101383.91
2022-12-17T06:23:51.962Z,101382.75
2022-12-17T06:26:34.218Z,101384.47
2022-12-17T06:29:16.131Z,101396.44
2022-12-17T06:32:00.865Z,101407.69
2022-12-17T06:34:42.887Z,101401.91
2022-12-17T06:37:24.811Z,101410.50
2022-12-17T06:40:06.760Z,101418.97
2022-12-17T06:42:48.704Z,101417.47
2022-12-17T06:45:30.667Z,101423.00
2022-12-17T06:48:19.870Z,101432.59
2022-12-17T06:51:01.857Z,101433.03
2022-12-17T06:53:43.833Z,101434.16
2022-12-17T06:56:25.743Z,101438.78
2022-12-17T06:59:07.682Z,101439.38
2022-12-17T07:01:49.725Z,101440.59
2022-12-17T07:04:34.337Z,101442.97
2022-12-17T07:07:16.264Z,101441.63
2022-12-17T07:09:58.187Z,101442.97
2022-12-17T07:12:40.142Z,101445.22
2022-12-17T07:15:23.088Z,101457.69
2022-12-17T07:18:14.727Z,101458.63
2022-12-17T07:20:59.218Z,101467.41
2022-12-17T07:23:41.186Z,101466.50
2022-12-17T07:26:23.119Z,101485.34
2022-12-17T07:29:05.106Z,101485.28
2022-12-17T07:31:47.079Z,101492.38
2022-12-17T07:34:29.122Z,101493.09
2022-12-17T07:37:17.432Z,101500.25
2022-12-17T07:40:02.342Z,101493.81
2022-12-17T07:42:44.304Z,101504.78
2022-12-17T07:45:26.336Z,101503.31
2022-12-17T07:48:08.573Z,101506.53
2022-12-17T07:50:50.614Z,101506.59
2022-12-17T07:53:35.339Z,101506.47
2022-12-17T07:56:17.413Z,101515.59
2022-12-17T07:58:59.392Z,101511.22
2022-12-17T08:01:41.449Z,101510.94
2022-12-17T08:04:23.480Z,101518.56
2022-12-17T08:07:11.081Z,101520.75
2022-12-17T08:09:56.768Z,101521.13
2022-12-17T08:12:38.756Z,101520.91
2022-12-17T08:15:21.791Z,101527.53
2022-12-17T08:18:03.731Z,101539.19
2022-12-17T08:20:45.720Z,101549.38
2022-12-17T08:23:27.656Z,101546.06
2022-12-17T08:26:12.175Z,101552.22
2022-12-17T08:28:54.126Z,101549.75
2022-12-17T08:31:38.556Z,101549.88
2022-12-17T08:34:20.657Z,101547.53
2022-12-17T08:37:08.354Z,101554.19
2022-12-17T08:39:50.315Z,101562.31
2022-12-17T08:42:34.822Z,101567.63
2022-12-17T08:45:16.927Z,101562.94
2022-12-17T08:48:03.580Z,101571.69
2022-12-17T08:50:46.098Z,101565.03
2022-12-17T08:53:31.979Z,101570.66
2022-12-17T08:56:16.752Z,101583.34
2022-12-17T08:59:01.298Z,101588.22
2022-12-17T09:01:43.347Z,101583.53
2022-12-17T09:04:25.341Z,101582.25
2022-12-17T09:07:07.277Z,101579.22
2022-12-17T09:09:49.190Z,101593.63
2022-12-17T09:12:31.211Z,101582.75
2022-12-17T09:15:15.764Z,101594.41
2022-12-17T09:17:57.710Z,101596.09
2022-12-17T09:20:39.659Z,101591.66
2022-12-17T09:23:21.603Z,101593.81
2022-12-17T09:26:07.956Z,101600.47
2022-12-17T09:28:49.895Z,101596.97
2022-12-17T09:31:37.483Z,101600.00
2022-12-17T09:34:19.785Z,101606.66
2022-12-17T09:37:01.924Z,101607.31
2022-12-17T09:39:43.849Z,101612.69
2022-12-17T09:42:29.216Z,101615.41
2022-12-17T09:45:14.525Z,101621.56
2022-12-17T09:48:04.363Z,101615.53
2022-12-17T09:50:46.351Z,101616.88
2022-12-17T09:53:35.554Z,101620.56
2022-12-17T09:56:17.744Z,101631.06
2022-12-17T09:58:59.718Z,101617.88
2022-12-17T10:01:43.657Z,101624.50
2022-12-17T10:04:30.914Z,101617.44
2022-12-17T10:07:12.861Z,101624.47
2022-12-17T10:09:56.230Z,101624.91
2022-12-17T10:12:39.305Z,101619.13
2022-12-17T10:15:22.945Z,101624.91
2022-12-17T10:18:04.909Z,101621.66
2022-12-17T10:20:52.865Z,101626.84
2022-12-17T10:23:41.346Z,101628.47
2022-12-17T10:26:23.299Z,101630.44
2022-12-17T10:29:05.286Z,101634.97
2022-12-17T10:31:47.450Z,101636.78
2022-12-17T10:34:30.253Z,101631.09
2022-12-17T10:37:17.437Z,101638.25
2022-12-17T10:39:59.384Z,101637.44
2022-12-17T10:42:42.523Z,101640.31
2022-12-17T10:45:36.100Z,101631.56
2022-12-17T10:48:18.084Z,101638.63
2022-12-17T10:51:00.003Z,101647.75
2022-12-17T10:53:44.535Z,101639.84
2022-12-17T10:56:34.893Z,101638.94
2022-12-17T10:59:16.843Z,101639.53
2022-12-17T11:01:58.880Z,101643.19
2022-12-17T11:04:41.948Z,101638.44
2022-12-17T11:07:24.199Z,101641.28
2022-12-17T11:10:10.121Z,101649.44
2022-12-17T11:12:56.571Z,101663.66
2022-12-17T11:15:41.147Z,101660.88
2022-12-17T11:18:35.933Z,101656.22
2022-12-17T11:21:19.866Z,101649.19
2022-12-17T11:24:01.898Z,101657.75
2022-12-17T11:26:46.764Z,101650.25
2022-12-17T11:29:37.543Z,101641.91
2022-12-17T11:32:38.104Z,101649.47
2022-12-17T11:35:22.639Z,101655.00
2022-12-17T11:38:08.877Z,101655.59
2022-12-17T11:40:52.438Z,101663.84
2022-12-17T11:43:38.457Z,101656.19
2022-12-17T11:46:31.655Z,101653.31
2022-12-17T11:49:17.193Z,101661.19
2022-12-17T11:52:01.664Z,101665.31
2022-12-17T11:54:44.778Z,101648.22
2022-12-17T11:57:38.108Z,101663.22
2022-12-17T12:00:28.675Z,101656.94
2022-12-17T12:03:15.383Z,101655.03
2022-12-17T12:05:58.892Z,101656.00
2022-12-17T12:08:42.586Z,101654.84
2022-12-17T12:11:31.740Z,101660.00
2022-12-17T12:14:17.117Z,101662.53
2022-12-17T12:17:05.329Z,101663.84
2022-12-17T12:19:50.180Z,101656.28
2022-12-17T12:22:33.168Z,101656.34
2022-12-17T12:25:23.814Z,101660.13
2022-12-17T12:28:10.511Z,101667.59
2022-12-17T12:30:54.456Z,101661.97
2022-12-17T12:33:43.381Z,101659.13
2022-12-17T12:36:26.088Z,101661.59
2022-12-17T12:39:09.014Z,101659.78
2022-12-17T12:41:56.260Z,101661.59
2022-12-17T12:44:41.026Z,101659.16
2022-12-17T12:47:25.171Z,101668.22
2022-12-17T12:50:11.574Z,101659.72
2022-12-17T12:52:53.540Z,101659.38
2022-12-17T12:55:35.540Z,101658.13
2022-12-17T12:58:18.542Z,101645.94
2022-12-17T13:01:07.512Z,101646.78
2022-12-17T13:03:50.674Z,101644.28
2022-12-17T13:06:45.214Z,101639.91
2022-12-17T13:09:39.655Z,101634.66
2022-12-17T13:12:40.265Z,101632.16
2022-12-17T13:15:26.036Z,101629.31
2022-12-17T13:18:00.316Z,101624.03
2022-12-17T13:20:31.546Z,101621.31
2022-12-17T13:23:17.727Z,101628.28
2022-12-17T13:25:47.480Z,101634.94
2022-12-17T13:28:30.808Z,101635.06
2022-12-17T13:31:04.189Z,101640.00
2022-12-17T13:33:35.993Z,101633.88
2022-12-17T13:36:09.248Z,101642.00
2022-12-17T13:38:45.338Z,101632.09
2022-12-17T13:41:16.262Z,101625.66
2022-12-17T13:43:46.409Z,101625.69
2022-12-17T13:46:21.354Z,101621.59
2022-12-17T13:48:58.131Z,101620.38
2022-12-17T13:51:28.493Z,101630.22
2022-12-17T13:54:01.228Z,101627.38
2022-12-17T13:56:31.494Z,101618.28
2022-12-17T13:59:08.463Z,101627.31
2022-12-17T14:01:46.924Z,101633.81
2022-12-17T14:04:23.230Z,101632.06
2022-12-17T14:06:52.747Z,101628.81
2022-12-17T14:09:25.691Z,101632.50
2022-12-17T14:12:07.632Z,101639.56
2022-12-17T14:14:38.311Z,101645.28
2022-12-17T14:17:07.838Z,101641.78
2022-12-17T14:19:37.337Z,101644.59
2022-12-17T14:22:06.842Z,101657.97
2022-12-17T14:24:38.889Z,101648.13
2022-12-17T14:27:08.340Z,101652.91
2022-12-17T14:29:47.559Z,101660.59
2022-12-17T14:32:25.325Z,101661.13
2022-12-17T14:35:00.403Z,101667.03
2022-12-17T14:37:30.395Z,101672.53
2022-12-17T14:40:04.691Z,101675.06
2022-12-17T14:42:34.183Z,101670.53
2022-12-17T14:45:05.492Z,101662.84
2022-12-17T14:47:35.621Z,101674.56
2022-12-17T14:50:07.928Z,101670.06
2022-12-17T14:52:43.082Z,101667.97
2022-12-17T14:55:33.012Z,101667.47
2022-12-17T14:58:21.084Z,101666.50
2022-12-17T15:00:52.442Z,101676.75
2022-12-17T15:03:24.096Z,101674.94
2022-12-17T15:05:55.592Z,101673.00
2022-12-17T15:08:25.124Z,101676.19
2022-12-17T15:10:57.177Z,101670.94
2022-12-17T15:13:26.666Z,101689.00
2022-12-17T15:15:56.110Z,101689.53
2022-12-17T15:18:26.787Z,101690.44
2022-12-17T15:20:56.224Z,101692.00
2022-12-17T15:23:25.947Z,101700.59
2022-12-17T15:25:57.971Z,101694.22
2022-12-17T15:28:27.442Z,101693.66
2022-12-17T15:30:56.965Z,101691.09
2022-12-17T15:33:26.460Z,101700.63
2022-12-17T15:35:55.916Z,101698.94
2022-12-17T15:38:25.380Z,101698.59
2022-12-17T15:40:54.884Z,101698.91
2022-12-17T15:43:24.403Z,101695.38
2022-12-17T15:45:54.188Z,101702.94
2022-12-17T15:48:24.561Z,101707.06
2022-12-17T15:50:54.016Z,101705.59
2022-12-17T15:53:23.492Z,101711.19
2022-12-17T15:55:52.946Z,101702.19
2022-12-17T15:58:22.443Z,101705.31
2022-12-17T16:00:54.507Z,101706.91
2022-12-17T16:03:24.702Z,101706.38
2022-12-17T16:05:54.195Z,101712.53
2022-12-17T16:08:23.670Z,101714.72
2022-12-17T16:10:53.135Z,101712.56
2022-12-17T16:13:22.591Z,101717.38
2022-12-17T16:16:03.836Z,101720.56
2022-12-17T16:18:34.037Z,101724.75
2022-12-17T16:21:07.000Z,101721.09
2022-12-17T16:23:36.660Z,101730.66
2022-12-17T16:26:07.596Z,101729.25
2022-12-17T16:28:37.250Z,101728.84
2022-12-17T16:31:10.824Z,101721.56
2022-12-17T16:33:41.149Z,101727.56
2022-12-17T16:36:11.448Z,101735.69
2022-12-17T16:38:45.571Z,101729.47
2022-12-17T16:41:15.400Z,101731.19
2022-12-17T16:43:44.878Z,101729.66
2022-12-17T16:46:30.153Z,101738.44
2022-12-17T16:49:00.362Z,101732.56
2022-12-17T16:51:30.382Z,101740.34
2022-12-17T16:54:00.099Z,101747.41
2022-12-17T16:56:32.825Z,101751.06
2022-12-17T16:59:07.919Z,101743.63
2022-12-17T17:01:40.344Z,101742.63
2022-12-17T17:04:11.077Z,101746.16
2022-12-17T17:06:41.689Z,101743.63
2022-12-17T17:09:11.366Z,101754.22
2022-12-17T17:11:40.813Z,101750.72
2022-12-17T17:14:10.878Z,101759.06
2022-12-17T17:16:42.923Z,101753.97
2022-12-17T17:19:12.445Z,101745.41
2022-12-17T17:21:42.203Z,101747.28
2022-12-17T17:24:20.851Z,101746.53
2022-12-17T17:26:51.433Z,101741.50
2022-12-17T17:29:20.972Z,101743.25
2022-12-17T17:34:42.568Z,101742.66
2022-12-17T17:37:12.065Z,101740.13
2022-12-17T17:39:41.527Z,101739.94
2022-12-17T17:42:11.006Z,101745.84
2022-12-17T17:44:40.604Z,101751.69
2022-12-17T17:47:12.841Z,101751.16
2022-12-17T17:49:42.299Z,101758.69
2022-12-17T17:52:12.296Z,101757.09
2022-12-17T17:54:42.175Z,101756.09
2022-12-17T17:57:11.809Z,101766.72
2022-12-17T17:59:42.033Z,101762.72
2022-12-17T18:02:15.257Z,101757.75
2022-12-17T18:04:44.823Z,101767.81
2022-12-17T18:07:29.792Z,101767.28
2022-12-17T18:09:59.814Z,101765.44
2022-12-17T18:12:41.839Z,101765.16
2022-12-17T18:15:15.269Z,101772.81
2022-12-17T18:17:47.870Z,101774.53
2022-12-17T18:20:17.407Z,101774.59
2022-12-17T18:22:47.354Z,101773.81
2022-12-17T18:25:17.792Z,101768.56
2022-12-17T18:27:47.332Z,101771.09
2022-12-17T18:30:17.039Z,101770.34
2022-12-17T18:32:49.080Z,101769.44
2022-12-17T18:35:18.666Z,101771.16
2022-12-17T18:37:48.148Z,101761.25
2022-12-17T18:40:17.628Z,101766.44
2022-12-17T18:42:59.579Z,101782.31
2022-12-17T18:45:29.072Z,101792.28
2022-12-17T18:48:01.110Z,101789.50
2022-12-17T18:50:30.599Z,101794.88
2022-12-17T18:53:00.087Z,101792.53
2022-12-17T18:55:29.551Z,101792.19
2022-12-17T18:57:59.568Z,101791.66
2022-12-17T19:00:29.040Z,101787.41
2022-12-17T19:03:01.151Z,101795.41
2022-12-17T19:05:30.694Z,101800.56
2022-12-17T19:08:00.146Z,101799.59
2022-12-17T19:10:29.592Z,101794.91
2022-12-17T19:12:59.547Z,101799.41
2022-12-17T19:15:29.080Z,101794.28
2022-12-17T19:18:01.484Z,101800.25
2022-12-17T19:20:30.944Z,101811.41
2022-12-17T19:23:00.401Z,101812.03
2022-12-17T19:25:29.879Z,101803.59
2022-12-17T19:27:59.324Z,101804.69
2022-12-17T19:30:28.858Z,101812.97
2022-12-17T19:33:01.096Z,101805.31
2022-12-17T19:35:30.620Z,101812.69
2022-12-17T19:38:00.086Z,101801.19
2022-12-17T19:40:29.593Z,101800.50
2022-12-17T19:42:59.045Z,101812.59
2022-12-17T19:45:28.596Z,101815.56
2022-12-17T19:48:00.684Z,101815.50
2022-12-17T19:50:30.155Z,101805.88
2022-12-17T19:52:59.599Z,101820.03
2022-12-17T19:55:29.068Z,101821.19
2022-12-17T19:57:58.551Z,101823.50
2022-12-17T20:00:28.035Z,101824.72
2022-12-17T20:02:58.017Z,101826.56
2022-12-17T20:05:30.150Z,101827.59
2022-12-17T20:07:59.602Z,101836.59
2022-12-17T20:10:29.054Z,101832.28
2022-12-17T20:12:58.476Z,101841.13
2022-12-17T20:15:27.954Z,101838.75
2022-12-17T20:17:57.416Z,101849.31
2022-12-17T20:20:27.176Z,101847.19
2022-12-17T20:22:59.237Z,101847.97
2022-12-17T20:25:28.716Z,101846.16
2022-12-17T20:27:58.527Z,101843.63
2022-12-17T20:30:28.015Z,101842.63
2022-12-17T20:32:57.484Z,101834.97
2022-12-17T20:35:26.941Z,101831.69
2022-12-17T20:37:58.976Z,101836.13
2022-12-17T20:40:28.443Z,101838.97
2022-12-17T20:42:57.912Z,101841.03
2022-12-17T20:45:27.497Z,101840.84
2022-12-17T20:47:57.008Z,101835.38
2022-12-17T20:50:26.471Z,101842.22
2022-12-17T20:52:55.933Z,101835.28
2022-12-17T20:55:31.307Z,101837.94
2022-12-17T20:58:00.932Z,101851.63
2022-12-17T21:00:30.382Z,101855.97
2022-12-17T21:02:59.926Z,101854.22
2022-12-17T21:05:29.541Z,101854.22
2022-12-17T21:07:58.988Z,101853.31
2022-12-17T21:10:31.054Z,101850.72
2022-12-17T21:13:18.694Z,101849.97
2022-12-17T21:15:51.572Z,101847.69
2022-12-17T21:18:21.011Z,101849.28
2022-12-17T21:20:56.545Z,101856.06
2022-12-17T21:23:26.098Z,101852.91
2022-12-17T21:26:02.977Z,101867.13
2022-12-17T21:28:39.362Z,101867.63
2022-12-17T21:31:09.219Z,101867.56
2022-12-17T21:33:38.891Z,101863.69
2022-12-17T21:36:09.200Z,101867.97
2022-12-17T21:38:38.938Z,101866.56
2022-12-17T21:41:14.710Z,101857.16
2022-12-17T21:43:44.196Z,101853.19
2022-12-17T21:46:13.951Z,101855.69
2022-12-17T21:48:46.657Z,101849.69
2022-12-17T21:51:16.622Z,101857.44
2022-12-17T21:53:46.352Z,101856.28
2022-12-17T21:56:19.236Z,101863.69
2022-12-17T21:58:49.169Z,101869.78
2022-12-17T22:01:20.034Z,101864.66
2022-12-17T22:03:53.139Z,101848.28
2022-12-17T22:06:26.403Z,101853.28
2022-12-17T22:09:03.624Z,101858.44
2022-12-17T22:11:45.225Z,101858.16
2022-12-17T22:14:18.747Z,101860.00
2022-12-17T22:16:50.574Z,101861.72
2022-12-17T22:19:22.504Z,101856.56
2022-12-17T22:21:57.757Z,101851.38
2022-12-17T22:24:27.606Z,101861.72
2022-12-17T22:27:02.294Z,101865.38
2022-12-17T22:29:44.261Z,101862.56
2022-12-17T22:32:26.481Z,101862.34
2022-12-17T22:36:06.911Z,101856.28
2022-12-17T22:40:37.943Z,101853.69
2022-12-17T22:44:25.898Z,101858.88
2022-12-17T22:44:51.577Z,101861.53
2022-12-17T22:46:21.242Z,101859.00
2022-12-17T22:48:50.781Z,101858.38
2022-12-17T22:51:26.417Z,101861.94
2022-12-17T22:54:03.830Z,101870.75
2022-12-17T22:57:15.146Z,101867.06
2022-12-17T22:59:25.716Z,101874.66
2022-12-17T23:01:55.211Z,101884.78
2022-12-17T23:04:24.734Z,101889.28
2022-12-17T23:06:54.245Z,101889.28
2022-12-17T23:09:24.111Z,101888.38
2022-12-17T23:11:53.569Z,101887.91
2022-12-17T23:14:25.672Z,101890.44
2022-12-17T23:16:55.145Z,101882.59
2022-12-17T23:19:24.612Z,101881.63
2022-12-17T23:21:54.081Z,101885.47
2022-12-17T23:24:23.528Z,101886.03
2022-12-17T23:26:52.996Z,101880.69
2022-12-17T23:29:25.041Z,101884.28
2022-12-17T23:31:54.529Z,101887.91
2022-12-17T23:34:24.583Z,101885.31
2022-12-17T23:36:54.048Z,101886.25
2022-12-17T23:39:23.569Z,101877.50
2022-12-17T23:41:53.085Z,101885.63
2022-12-17T23:44:25.296Z,101883.19
2022-12-17T23:46:54.786Z,101875.00
2022-12-17T23:49:24.268Z,101876.78
2022-12-17T23:51:53.782Z,101879.31
2022-12-17T23:54:23.244Z,101869.66
2022-12-17T23:56:52.705Z,101871.81
2022-12-17T23:59:24.760Z,101869.59
